Sherman, Nebraska
Current Conditions -  °F | °C
As of 4:35 PM on Wednesday 22 Oct 2014 (Local Time) from KHDE Reporting Station
Scattered Clouds Scattered Clouds  
Wind Chill: 18°   Ceiling: Unl
Heat Index: 18°   Visibility: 10mi
Dew Point: 14°   Wind: 0mph
Humidity: 80%   Direction: NA
Pressure: 30"   Gusts: NA
Location:  40.3942°N, 99.1223°W
Report Text: KHDE 222135Z AUTO 00000KT 10SM SCT036 SCT100 SCT120 18/14 A3000 RMK AO2 LTG DSNT E T01780144
Loading
Personal Weather Stations






























Interactive Weather Map
Tropical Storm Tracking
New forecast layout! Learn more

10-Day Weather Forecast

Advertisements
Track Severe Weather on mobile